createdAt,value
2023-05-18T00:01:58.162Z,17.83
2023-05-18T00:04:33.348Z,17.75
2023-05-18T00:07:07.434Z,17.65
2023-05-18T00:09:41.493Z,17.59
2023-05-18T00:12:16.509Z,17.55
2023-05-18T00:14:50.282Z,17.51
2023-05-18T00:17:23.911Z,17.45
2023-05-18T00:19:58.697Z,17.45
2023-05-18T00:22:32.930Z,17.42
2023-05-18T00:25:07.876Z,17.35
2023-05-18T00:27:42.461Z,17.28
2023-05-18T00:30:17.323Z,17.21
2023-05-18T00:32:53.189Z,17.15
2023-05-18T00:35:26.638Z,17.09
2023-05-18T00:38:00.036Z,17.00
2023-05-18T00:40:33.497Z,16.97
2023-05-18T00:43:06.794Z,16.93
2023-05-18T00:45:40.829Z,16.91
2023-05-18T00:48:14.430Z,16.93
2023-05-18T00:50:48.134Z,16.96
2023-05-18T00:53:21.711Z,16.97
2023-05-18T00:55:55.852Z,16.95
2023-05-18T00:58:29.579Z,16.93
2023-05-18T01:01:03.421Z,16.90
2023-05-18T01:03:38.996Z,16.88
2023-05-18T01:06:13.085Z,16.83
2023-05-18T01:08:47.441Z,16.75
2023-05-18T01:11:24.971Z,16.75
2023-05-18T01:16:49.094Z,16.91
2023-05-18T01:19:36.266Z,16.74
2023-05-18T01:22:13.759Z,16.67
2023-05-18T01:24:49.948Z,16.58
2023-05-18T01:27:26.505Z,16.52
2023-05-18T01:30:01.302Z,16.48
2023-05-18T01:32:42.808Z,16.43
2023-05-18T01:35:16.754Z,16.45
2023-05-18T01:37:50.351Z,16.44
2023-05-18T01:40:25.031Z,16.45
2023-05-18T01:43:01.603Z,16.49
2023-05-18T01:45:36.889Z,16.54
2023-05-18T01:48:13.550Z,16.55
2023-05-18T01:50:49.952Z,16.58
2023-05-18T01:53:27.220Z,16.57
2023-05-18T01:56:02.743Z,16.56
2023-05-18T01:58:37.840Z,16.56
2023-05-18T02:01:11.798Z,16.54
2023-05-18T02:03:49.449Z,16.49
2023-05-18T02:06:23.303Z,16.47
2023-05-18T02:08:57.078Z,16.48
2023-05-18T02:11:30.795Z,16.51
2023-05-18T02:14:04.363Z,16.51
2023-05-18T02:16:37.923Z,16.56
2023-05-18T02:19:12.109Z,16.61
2023-05-18T02:21:45.884Z,16.70
2023-05-18T02:24:19.438Z,16.76
2023-05-18T02:26:52.770Z,16.81
2023-05-18T02:29:26.344Z,16.82
2023-05-18T02:31:59.887Z,16.81
2023-05-18T02:34:35.215Z,16.81
2023-05-18T02:37:08.880Z,16.82
2023-05-18T02:39:42.530Z,16.87
2023-05-18T02:42:16.130Z,16.88
2023-05-18T02:44:49.949Z,16.87
2023-05-18T02:47:23.543Z,16.83
2023-05-18T02:49:56.874Z,16.81
2023-05-18T02:52:31.085Z,16.79
2023-05-18T02:55:05.364Z,16.78
2023-05-18T02:57:57.542Z,16.79
2023-05-18T03:00:32.714Z,16.78
2023-05-18T03:03:06.146Z,16.78
2023-05-18T03:05:39.415Z,16.79
2023-05-18T03:08:14.361Z,16.81
2023-05-18T03:10:48.093Z,16.85
2023-05-18T03:13:22.189Z,16.91
2023-05-18T03:15:56.762Z,16.95
2023-05-18T03:18:30.517Z,16.99
2023-05-18T03:21:04.013Z,17.06
2023-05-18T03:23:37.496Z,17.09
2023-05-18T03:26:12.554Z,17.13
2023-05-18T03:28:46.572Z,17.18
2023-05-18T03:31:21.128Z,17.24
2023-05-18T03:33:56.445Z,17.30
2023-05-18T03:36:30.297Z,17.35
2023-05-18T03:39:04.381Z,17.40
2023-05-18T03:41:38.088Z,17.44
2023-05-18T03:44:11.618Z,17.48
2023-05-18T03:46:45.461Z,17.53
2023-05-18T03:49:19.339Z,17.56
2023-05-18T03:51:54.501Z,17.59
2023-05-18T03:54:28.074Z,17.61
2023-05-18T03:57:01.767Z,17.65
2023-05-18T03:59:35.889Z,17.71
2023-05-18T04:02:09.834Z,17.75
2023-05-18T04:04:46.278Z,17.81
2023-05-18T04:10:01.842Z,18.07
2023-05-18T04:12:35.808Z,18.01
2023-05-18T04:15:12.880Z,18.10
2023-05-18T04:17:46.531Z,18.16
2023-05-18T04:20:21.320Z,18.25
2023-05-18T04:23:01.397Z,18.34
2023-05-18T04:25:34.069Z,18.42
2023-05-18T04:28:08.394Z,18.50
2023-05-18T04:30:41.995Z,18.58
2023-05-18T04:33:16.495Z,18.64
2023-05-18T04:35:55.229Z,18.74
2023-05-18T04:38:29.886Z,18.81
2023-05-18T04:41:05.888Z,18.92
2023-05-18T04:43:39.888Z,18.99
2023-05-18T04:46:14.054Z,19.07
2023-05-18T04:48:49.491Z,19.15
2023-05-18T04:51:23.225Z,19.22
2023-05-18T04:53:57.738Z,19.29
2023-05-18T04:56:31.672Z,19.36
2023-05-18T04:59:06.603Z,19.43
2023-05-18T05:01:40.359Z,19.51
2023-05-18T05:04:13.896Z,19.60
2023-05-18T05:06:47.341Z,19.70
2023-05-18T05:09:20.911Z,19.78
2023-05-18T05:11:56.489Z,19.85
2023-05-18T05:14:29.776Z,19.95
2023-05-18T05:17:03.799Z,20.03
2023-05-18T05:19:37.296Z,20.12
2023-05-18T05:22:10.720Z,20.21
2023-05-18T05:24:44.262Z,20.27
2023-05-18T05:27:18.950Z,20.35
2023-05-18T05:29:52.451Z,20.44
2023-05-18T05:32:26.024Z,20.52
2023-05-18T05:35:00.830Z,20.60
2023-05-18T05:37:34.942Z,20.65
2023-05-18T05:40:11.342Z,20.71
2023-05-18T05:42:46.545Z,20.79
2023-05-18T05:45:21.510Z,20.88
2023-05-18T05:47:57.515Z,20.93
2023-05-18T05:50:31.522Z,20.98
2023-05-18T05:53:07.005Z,20.99
2023-05-18T05:55:42.452Z,21.04
2023-05-18T05:58:23.068Z,21.12
2023-05-18T06:00:58.060Z,21.16
2023-05-18T06:03:35.188Z,21.22
2023-05-18T06:06:09.595Z,21.38
2023-05-18T06:08:43.510Z,21.38
2023-05-18T06:11:16.899Z,21.43
2023-05-18T06:13:52.622Z,21.51
2023-05-18T06:16:26.532Z,21.55
2023-05-18T06:19:00.769Z,21.62
2023-05-18T06:21:34.651Z,21.69
2023-05-18T06:24:11.505Z,21.79
2023-05-18T06:26:49.661Z,21.83
2023-05-18T06:29:36.680Z,21.89
2023-05-18T06:32:12.147Z,21.95
2023-05-18T06:34:47.457Z,22.02
2023-05-18T06:37:21.641Z,22.08
2023-05-18T06:39:55.687Z,22.16
2023-05-18T06:42:29.216Z,22.23
2023-05-18T06:45:20.991Z,22.29
2023-05-18T06:47:56.595Z,22.37
2023-05-18T06:50:30.011Z,22.47
2023-05-18T06:53:04.552Z,22.64
2023-05-18T06:55:43.499Z,23.05
2023-05-18T06:58:16.906Z,23.91
2023-05-18T07:00:53.759Z,25.28
2023-05-18T07:03:34.892Z,27.13
2023-05-18T07:06:10.658Z,28.82
2023-05-18T07:08:45.208Z,29.40
2023-05-18T07:11:19.185Z,29.87
2023-05-18T07:13:52.833Z,30.07
2023-05-18T07:16:27.357Z,30.61
2023-05-18T07:19:01.266Z,31.03
2023-05-18T07:21:35.040Z,30.58
2023-05-18T07:24:09.344Z,30.09
2023-05-18T07:26:43.070Z,29.36
2023-05-18T07:29:16.612Z,28.91
2023-05-18T07:31:52.741Z,28.60
2023-05-18T07:34:27.350Z,28.66
2023-05-18T07:37:00.593Z,29.27
2023-05-18T07:39:33.990Z,30.13
2023-05-18T07:42:09.658Z,31.26
2023-05-18T07:44:43.277Z,32.01
2023-05-18T07:47:16.706Z,32.99
2023-05-18T07:49:50.921Z,33.18
2023-05-18T07:52:24.637Z,32.99
2023-05-18T07:54:58.494Z,33.14
2023-05-18T07:57:31.725Z,34.00
2023-05-18T08:00:06.697Z,34.63
2023-05-18T08:02:42.110Z,34.57
2023-05-18T08:05:19.114Z,34.73
2023-05-18T08:07:51.422Z,35.01
2023-05-18T08:10:25.297Z,34.91
2023-05-18T08:12:58.617Z,35.27
2023-05-18T08:18:14.072Z,37.42
2023-05-18T08:20:47.614Z,37.51
2023-05-18T08:23:21.528Z,38.52
2023-05-18T08:25:57.093Z,39.26
2023-05-18T08:28:33.147Z,39.39
2023-05-18T08:31:07.380Z,37.90
2023-05-18T08:33:42.764Z,38.24
2023-05-18T08:36:17.172Z,38.30
2023-05-18T08:38:50.721Z,38.66
2023-05-18T08:41:27.192Z,38.87
2023-05-18T08:44:05.381Z,38.17
2023-05-18T08:46:42.761Z,38.90
2023-05-18T08:49:18.246Z,40.69
2023-05-18T08:51:56.607Z,42.22
2023-05-18T08:54:31.965Z,42.25
2023-05-18T08:57:08.574Z,41.42
2023-05-18T08:59:43.911Z,40.97
2023-05-18T09:02:17.842Z,39.94
2023-05-18T09:04:52.013Z,38.78
2023-05-18T09:07:27.646Z,38.25
2023-05-18T09:10:02.584Z,38.63
2023-05-18T09:12:36.606Z,38.55
2023-05-18T09:15:13.815Z,36.04
2023-05-18T09:17:47.460Z,36.10
2023-05-18T09:20:23.454Z,37.35
2023-05-18T09:22:56.872Z,38.03
2023-05-18T09:25:32.724Z,38.80
2023-05-18T09:28:06.843Z,38.89
2023-05-18T09:30:44.461Z,39.66
2023-05-18T09:33:23.710Z,40.35
2023-05-18T09:35:57.972Z,39.77
2023-05-18T09:38:31.616Z,38.91
2023-05-18T09:41:05.542Z,39.30
2023-05-18T09:43:44.358Z,39.68
2023-05-18T09:46:18.339Z,40.00
2023-05-18T09:48:54.327Z,40.84
2023-05-18T09:51:28.158Z,41.41
2023-05-18T09:54:05.272Z,41.63
2023-05-18T09:56:39.562Z,40.32
2023-05-18T09:59:14.196Z,38.04
2023-05-18T10:02:01.331Z,38.27
2023-05-18T10:04:42.629Z,38.87
2023-05-18T10:07:17.964Z,39.67
2023-05-18T10:09:54.619Z,40.02
2023-05-18T10:12:26.469Z,40.57
2023-05-18T10:17:43.062Z,40.51
2023-05-18T10:20:20.225Z,41.16
2023-05-18T10:22:55.613Z,41.16
2023-05-18T10:25:30.734Z,41.97
2023-05-18T10:28:07.331Z,43.34
2023-05-18T10:30:44.235Z,43.94
2023-05-18T10:33:28.517Z,43.77
2023-05-18T10:35:54.581Z,44.71
2023-05-18T10:38:29.698Z,46.15
2023-05-18T10:41:15.377Z,44.66
2023-05-18T10:43:50.251Z,42.08
2023-05-18T10:46:34.511Z,40.91
2023-05-18T10:49:10.651Z,41.41
2023-05-18T10:51:47.604Z,42.36
2023-05-18T10:57:04.052Z,43.06
2023-05-18T10:59:42.504Z,43.16
2023-05-18T11:02:16.484Z,42.97
2023-05-18T11:04:53.281Z,43.29
2023-05-18T11:07:26.799Z,42.39
2023-05-18T11:10:01.110Z,42.39
2023-05-18T11:12:35.623Z,43.11
2023-05-18T11:15:10.618Z,43.88
2023-05-18T11:17:43.122Z,42.73
2023-05-18T11:20:18.472Z,41.90
2023-05-18T11:22:56.272Z,41.43
2023-05-18T11:25:46.040Z,42.05
2023-05-18T11:28:18.469Z,41.38
2023-05-18T11:30:53.758Z,39.35
2023-05-18T11:33:29.956Z,37.65
2023-05-18T11:36:07.681Z,38.49
2023-05-18T11:41:31.860Z,36.81
2023-05-18T11:44:22.582Z,36.16
2023-05-18T11:47:00.549Z,36.91
2023-05-18T11:49:35.371Z,39.04
2023-05-18T11:52:10.456Z,39.39
2023-05-18T11:54:47.121Z,39.08
2023-05-18T11:57:19.032Z,38.96
2023-05-18T11:59:53.750Z,39.37
2023-05-18T12:02:28.414Z,39.41
2023-05-18T12:05:02.573Z,40.57
2023-05-18T12:07:36.508Z,39.74
2023-05-18T12:10:12.095Z,39.04
2023-05-18T12:12:46.774Z,39.23
2023-05-18T12:15:20.879Z,39.24
2023-05-18T12:17:53.874Z,38.08
2023-05-18T12:20:27.522Z,36.81
2023-05-18T12:23:01.407Z,35.08
2023-05-18T12:25:34.216Z,33.97
2023-05-18T12:28:08.164Z,33.28
2023-05-18T12:30:41.066Z,32.73
2023-05-18T12:33:15.305Z,32.27
2023-05-18T12:35:47.827Z,32.07
2023-05-18T12:38:21.618Z,33.59
2023-05-18T12:40:55.887Z,35.52
2023-05-18T12:43:28.679Z,36.14
2023-05-18T12:46:03.127Z,35.70
2023-05-18T12:48:40.048Z,34.42
2023-05-18T12:51:12.832Z,33.96
2023-05-18T12:53:46.003Z,33.73
2023-05-18T12:56:18.840Z,32.71
2023-05-18T12:59:03.509Z,32.74
2023-05-18T13:01:43.943Z,34.18
2023-05-18T13:04:16.962Z,35.21
2023-05-18T13:06:50.225Z,36.32
2023-05-18T13:09:22.930Z,37.22
2023-05-18T13:12:06.997Z,37.80
2023-05-18T13:14:33.170Z,38.71
2023-05-18T13:17:08.736Z,38.10
2023-05-18T13:19:41.119Z,36.62
2023-05-18T13:22:14.858Z,35.84
2023-05-18T13:24:47.185Z,35.50
2023-05-18T13:27:19.777Z,35.10
2023-05-18T13:29:52.693Z,34.97
2023-05-18T13:32:25.248Z,34.80
2023-05-18T13:34:57.977Z,35.01
2023-05-18T13:37:31.393Z,35.52
2023-05-18T13:40:04.372Z,35.52
2023-05-18T13:42:36.988Z,35.60
2023-05-18T13:45:15.095Z,35.74
2023-05-18T13:47:48.345Z,36.07
2023-05-18T13:50:23.187Z,36.48
2023-05-18T13:52:55.814Z,34.80
2023-05-18T13:55:28.503Z,34.40
2023-05-18T13:58:01.037Z,34.72
2023-05-18T14:00:34.449Z,35.42
2023-05-18T14:03:07.929Z,34.78
2023-05-18T14:05:40.847Z,33.43
2023-05-18T14:08:13.552Z,32.23
2023-05-18T14:10:46.122Z,31.22
2023-05-18T14:13:18.700Z,30.36
2023-05-18T14:15:51.408Z,29.79
2023-05-18T14:18:23.860Z,29.45
2023-05-18T14:20:57.909Z,29.53
2023-05-18T14:23:30.904Z,30.46
2023-05-18T14:26:03.727Z,31.47
2023-05-18T14:28:36.451Z,31.88
2023-05-18T14:31:10.477Z,32.60
2023-05-18T14:33:43.158Z,33.14
2023-05-18T14:36:16.813Z,33.35
2023-05-18T14:38:49.270Z,33.63
2023-05-18T14:41:22.528Z,33.07
2023-05-18T14:43:55.515Z,32.40
2023-05-18T14:46:31.354Z,32.24
2023-05-18T14:49:03.828Z,31.79
2023-05-18T14:54:19.235Z,32.50
2023-05-18T14:56:51.524Z,32.50
2023-05-18T14:59:23.916Z,32.08
2023-05-18T15:01:56.567Z,31.59
2023-05-18T15:04:30.316Z,31.42
2023-05-18T15:07:05.857Z,31.45
2023-05-18T15:09:38.546Z,31.54
2023-05-18T15:12:11.931Z,31.35
2023-05-18T15:14:44.717Z,30.82
2023-05-18T15:17:18.067Z,29.80
2023-05-18T15:19:50.643Z,29.08
2023-05-18T15:22:24.386Z,28.62
2023-05-18T15:24:57.259Z,28.23
2023-05-18T15:27:30.189Z,27.88
2023-05-18T15:32:45.329Z,27.31
2023-05-18T15:35:18.095Z,26.96
2023-05-18T15:38:02.878Z,26.77
2023-05-18T15:40:38.554Z,26.69
2023-05-18T15:43:11.121Z,26.39
2023-05-18T15:45:43.749Z,26.05
2023-05-18T15:48:16.025Z,25.83
2023-05-18T15:50:48.495Z,25.62
2023-05-18T15:53:20.964Z,25.27
2023-05-18T15:55:58.413Z,24.92
2023-05-18T15:58:30.839Z,24.73
2023-05-18T16:01:04.739Z,24.68
2023-05-18T16:03:37.804Z,24.56
2023-05-18T16:06:10.912Z,24.38
2023-05-18T16:08:45.085Z,24.08
2023-05-18T16:11:17.454Z,23.70
2023-05-18T16:13:50.460Z,23.43
2023-05-18T16:16:23.144Z,23.28
2023-05-18T16:18:56.199Z,23.15
2023-05-18T16:21:28.959Z,22.97
2023-05-18T16:24:01.570Z,22.85
2023-05-18T16:26:36.771Z,22.69
2023-05-18T16:29:09.959Z,22.54
2023-05-18T16:31:42.118Z,22.40
2023-05-18T16:34:14.357Z,22.34
2023-05-18T16:36:46.870Z,22.25
2023-05-18T16:39:19.501Z,22.11
2023-05-18T16:41:51.758Z,22.02
2023-05-18T16:44:24.552Z,21.91
2023-05-18T16:46:57.140Z,21.81
2023-05-18T16:49:29.280Z,21.70
2023-05-18T16:52:02.019Z,21.65
2023-05-18T16:54:34.424Z,21.56
2023-05-18T16:57:07.414Z,21.52
2023-05-18T16:59:39.774Z,21.49
2023-05-18T17:02:13.589Z,21.41
2023-05-18T17:04:46.818Z,21.28
2023-05-18T17:07:19.634Z,21.36
2023-05-18T17:09:52.067Z,21.52
2023-05-18T17:12:24.405Z,21.51
2023-05-18T17:14:56.992Z,21.42
2023-05-18T17:17:29.185Z,21.29
2023-05-18T17:20:01.460Z,21.21
2023-05-18T17:22:37.688Z,21.15
2023-05-18T17:25:11.690Z,21.01
2023-05-18T17:27:44.186Z,20.95
2023-05-18T17:30:17.086Z,20.99
2023-05-18T17:32:50.711Z,21.05
2023-05-18T17:35:23.364Z,20.98
2023-05-18T17:37:56.126Z,20.85
2023-05-18T17:40:28.389Z,20.79
2023-05-18T17:43:00.805Z,20.64
2023-05-18T17:45:33.756Z,20.58
2023-05-18T17:48:07.446Z,20.48
2023-05-18T17:50:40.038Z,20.19
2023-05-18T17:53:12.938Z,19.99
2023-05-18T17:55:45.407Z,19.79
2023-05-18T17:58:17.694Z,19.66
2023-05-18T18:00:51.212Z,19.47
2023-05-18T18:03:38.909Z,19.41
2023-05-18T18:06:13.514Z,19.24
2023-05-18T18:09:01.731Z,19.27
2023-05-18T18:11:35.707Z,19.10
2023-05-18T18:14:09.213Z,19.04
2023-05-18T18:16:59.783Z,19.27
2023-05-18T18:19:49.689Z,19.26
2023-05-18T18:22:37.382Z,19.45
2023-05-18T18:25:43.564Z,19.53
2023-05-18T18:31:22.786Z,19.55
2023-05-18T18:33:56.716Z,19.42
2023-05-18T18:36:44.389Z,19.52
2023-05-18T18:39:18.071Z,19.40
2023-05-18T18:41:51.952Z,19.38
2023-05-18T18:44:39.747Z,19.44
2023-05-18T18:47:16.041Z,19.31
2023-05-18T18:49:50.357Z,19.30
2023-05-18T18:52:24.990Z,19.28
2023-05-18T18:55:14.858Z,19.35
2023-05-18T18:58:01.933Z,19.16
2023-05-18T19:00:50.680Z,19.13
2023-05-18T19:03:27.298Z,18.94
2023-05-18T19:06:17.599Z,19.01
2023-05-18T19:08:53.411Z,18.88
2023-05-18T19:11:28.489Z,18.87
2023-05-18T19:14:02.026Z,18.79
2023-05-18T19:16:49.893Z,18.84
2023-05-18T19:19:27.750Z,18.71
2023-05-18T19:22:00.762Z,18.72
2023-05-18T19:24:34.665Z,18.70
2023-05-18T19:27:22.642Z,18.78
2023-05-18T19:29:56.269Z,18.62
2023-05-18T19:32:43.986Z,18.62
2023-05-18T19:35:34.152Z,18.50
2023-05-18T19:38:07.842Z,18.28
2023-05-18T19:40:56.388Z,18.25
2023-05-18T19:43:30.076Z,17.97
2023-05-18T19:46:18.351Z,17.90
2023-05-18T19:48:54.250Z,17.73
2023-05-18T19:51:41.916Z,17.77
2023-05-18T19:54:16.971Z,17.56
2023-05-18T19:57:06.576Z,17.64
2023-05-18T19:59:40.841Z,17.55
2023-05-18T20:02:14.968Z,17.66
2023-05-18T20:04:48.853Z,17.73
2023-05-18T20:07:37.221Z,17.98
2023-05-18T20:10:11.192Z,17.86
2023-05-18T20:12:47.950Z,17.92
2023-05-18T20:15:22.731Z,18.02
2023-05-18T20:18:10.283Z,18.10
2023-05-18T20:20:44.281Z,17.95
2023-05-18T20:23:32.596Z,17.94
2023-05-18T20:26:06.926Z,17.79
2023-05-18T20:28:55.504Z,17.74
2023-05-18T20:31:29.286Z,17.55
2023-05-18T20:34:04.103Z,17.55
2023-05-18T20:36:51.795Z,17.63
2023-05-18T20:39:28.501Z,17.49
2023-05-18T20:42:03.229Z,17.53
2023-05-18T20:44:38.133Z,17.47
2023-05-18T20:47:26.651Z,17.59
2023-05-18T20:50:00.710Z,17.46
2023-05-18T20:52:35.522Z,17.41
2023-05-18T20:55:11.300Z,17.39
2023-05-18T20:58:01.063Z,17.41
2023-05-18T21:00:34.842Z,17.22
2023-05-18T21:03:08.511Z,17.17
2023-05-18T21:05:56.702Z,17.21
2023-05-18T21:08:30.437Z,17.05
2023-05-18T21:11:04.567Z,17.00
2023-05-18T21:13:38.329Z,16.98
2023-05-18T21:16:33.232Z,17.07
2023-05-18T21:19:09.563Z,16.96
2023-05-18T21:21:43.845Z,16.99
2023-05-18T21:24:18.083Z,16.99
2023-05-18T21:27:07.175Z,17.11
2023-05-18T21:29:41.105Z,16.99
2023-05-18T21:32:15.227Z,17.00
2023-05-18T21:34:49.453Z,17.01
2023-05-18T21:37:38.143Z,17.11
2023-05-18T21:40:13.454Z,16.96
2023-05-18T21:42:47.472Z,16.95
2023-05-18T21:45:35.479Z,17.01
2023-05-18T21:48:10.330Z,16.89
2023-05-18T21:50:43.956Z,16.92
2023-05-18T21:53:18.334Z,16.93
2023-05-18T21:56:07.372Z,17.05
2023-05-18T21:58:58.607Z,16.96
2023-05-18T22:01:55.010Z,17.01
2023-05-18T22:04:29.180Z,16.89
2023-05-18T22:07:18.422Z,17.03
2023-05-18T22:09:53.418Z,16.84
2023-05-18T22:12:27.607Z,16.75
2023-05-18T22:15:17.361Z,16.90
2023-05-18T22:17:51.418Z,16.89
2023-05-18T22:20:39.972Z,17.14
2023-05-18T22:23:13.853Z,17.14
2023-05-18T22:26:01.830Z,17.28
2023-05-18T22:28:35.849Z,17.22
2023-05-18T22:31:09.556Z,17.23
2023-05-18T22:33:43.584Z,17.26
2023-05-18T22:36:32.274Z,17.38
2023-05-18T22:39:07.275Z,17.28
2023-05-18T22:41:41.205Z,17.30
2023-05-18T22:44:15.064Z,17.32
2023-05-18T22:47:06.167Z,17.48
2023-05-18T22:49:41.306Z,17.36
2023-05-18T22:52:16.533Z,17.37
2023-05-18T22:54:51.212Z,17.29
2023-05-18T22:57:38.905Z,17.44
2023-05-18T23:00:15.659Z,17.29
2023-05-18T23:02:49.818Z,17.26
2023-05-18T23:05:23.875Z,17.26
2023-05-18T23:08:13.315Z,17.36
2023-05-18T23:10:47.203Z,17.20
2023-05-18T23:13:21.222Z,17.21
2023-05-18T23:16:10.653Z,17.26
2023-05-18T23:18:46.001Z,17.10
2023-05-18T23:21:33.924Z,17.14
2023-05-18T23:24:10.549Z,16.96
2023-05-18T23:26:59.004Z,16.95
2023-05-18T23:29:32.681Z,16.78
2023-05-18T23:32:07.160Z,16.74
2023-05-18T23:34:42.525Z,16.69
2023-05-18T23:37:33.010Z,16.75
2023-05-18T23:40:10.042Z,16.61
2023-05-18T23:42:45.431Z,16.56
2023-05-18T23:45:21.616Z,16.55
2023-05-18T23:48:12.071Z,16.59
2023-05-18T23:51:02.367Z,16.56
2023-05-18T23:53:36.694Z,16.44
2023-05-18T23:56:25.822Z,16.54
2023-05-18T23:59:02.594Z,16.39
